TAF

TERMINAL AERODROME FORECAST
STASIUN METEOROLOGI HANG NADIM BATAM

ADDS - METARS form results

(0345 UTC 22 July 2019)
Data provider http://aviationweather.gov/metar/data/
 
Forecast for: WIDD (HANG NADIM , ID)
Text: TAF WIDD 212300Z 2200/2224 18008KT 9999 SCT014
Forecast period: 0000 UTC 22 July 2019 to 0000 UTC 23 July 2019
Forecast type: FROM: standard forecast or significant change
Winds: from the S (180 degrees) at 9 MPH (8 knots; 4.1 m/s)
Visibility: 6 or more miles 10+ km)
Ceiling: at least 12,000 feet AGL
Clouds: scattered clouds at 1400 feet AGL
Weather: no significant weather forecast for this period
Text: PROB40
Forecast period: 0200 to 0600 UTC 22 July 2019
Forecast type: TEMPORARY: The following changes expected for less than half the time period
Visibility: 4 miles (6 km)
Ceiling: at least 12,000 feet AGL
Clouds: few clouds at 1300 feet AGL
Weather: -TSRA  (light rain associated with thunderstorm(s))

Informasi TAF dapat diakses juga di http://aviation.bmkg.go.id